Time;durP1;ratioP1;P1;durP2;ratioP2;P2;SDS_P1;SDS_P2;PMS_P1;PMS_P2;Temp;Humidity;BMP_temperature;BMP_pressure;BME280_temperature;BME280_humidity;BME280_pressure;Samples;Min_cycle;Max_cycle;Signal;HPM_P1;HPM_P2
2023/09/12 00:00:11;;;;;;;2.85;2.30;;;22.50;70.00;;;;;;5130139;27;20224;-62
2023/09/12 00:02:39;;;;;;;3.33;2.60;;;22.40;69.80;;;;;;5130117;28;20223;-62
2023/09/12 00:05:08;;;;;;;5.30;2.42;;;22.50;70.00;;;;;;5129765;27;20231;-64
2023/09/12 00:10:36;;;;;;;2.80;2.47;;;22.40;69.80;;;;;;5129683;28;20211;-63
2023/09/12 00:13:04;;;;;;;3.03;2.25;;;22.40;69.80;;;;;;5129539;27;20196;-63
2023/09/12 00:15:32;;;;;;;2.70;2.20;;;22.50;69.90;;;;;;5129746;27;20192;-63
2023/09/12 00:17:59;;;;;;;2.50;2.30;;;22.40;69.80;;;;;;5129376;27;20703;-63
2023/09/12 00:20:29;;;;;;;2.40;2.10;;;22.50;70.00;;;;;;5129785;28;20192;-62
2023/09/12 00:22:57;;;;;;;2.60;2.20;;;22.40;70.20;;;;;;5129329;28;20232;-63
2023/09/12 00:25:24;;;;;;;3.97;2.60;;;22.40;69.80;;;;;;5129690;27;20228;-62
2023/09/12 00:27:52;;;;;;;2.90;2.17;;;22.40;69.70;;;;;;5129730;27;20181;-63
2023/09/12 00:30:19;;;;;;;3.63;2.80;;;22.40;69.80;;;;;;5129564;27;20213;-62
2023/09/12 00:32:48;;;;;;;3.20;2.45;;;22.40;69.80;;;;;;5126879;28;20246;-64
2023/09/12 00:35:15;;;;;;;3.00;2.67;;;22.40;69.70;;;;;;5116122;28;20213;-63
2023/09/12 00:44:00;;;;;;;;;;;;;;;;;;;;;
2023/09/12 00:46:32;;;;;;;3.67;2.42;;;22.40;69.70;;;;;;5032529;28;20200;-63
2023/09/12 00:51:43;;;;;;;3.50;2.20;;;22.40;69.70;;;;;;5031770;28;20200;-62
2023/09/12 00:54:12;;;;;;;3.80;2.25;;;22.40;69.70;;;;;;5032405;28;20216;-63
2023/09/12 00:56:40;;;;;;;4.38;2.53;;;22.40;69.70;;;;;;5031995;28;20193;-64
2023/09/12 00:59:09;;;;;;;3.83;2.70;;;22.40;69.60;;;;;;5032208;28;20212;-63
2023/09/12 01:01:37;;;;;;;4.25;2.30;;;22.30;69.60;;;;;;5032294;28;20211;-63
2023/09/12 01:04:05;;;;;;;4.40;2.40;;;22.40;69.60;;;;;;5032037;28;20224;-62
2023/09/12 01:07:04;;;;;;;2.95;2.40;;;22.40;69.60;;;;;;5032129;28;20243;-64
2023/09/12 01:09:34;;;;;;;4.15;2.60;;;22.40;69.60;;;;;;5032181;28;20375;-62
2023/09/12 01:12:02;;;;;;;4.05;2.60;;;22.40;69.60;;;;;;5031960;28;20193;-63
2023/09/12 01:14:30;;;;;;;3.95;2.58;;;22.40;69.60;;;;;;5031947;28;20255;-62
2023/09/12 01:16:59;;;;;;;3.92;2.45;;;22.30;69.50;;;;;;5031877;28;20279;-62
2023/09/12 01:19:28;;;;;;;2.72;2.10;;;22.40;69.60;;;;;;5046715;28;20299;-64
2023/09/12 01:22:33;;;;;;;2.92;2.00;;;22.30;69.40;;;;;;5114627;28;20267;-62
2023/09/12 01:25:31;;;;;;;4.20;2.42;;;22.40;69.50;;;;;;5114515;28;20220;-64
2023/09/12 01:28:05;;;;;;;4.65;2.78;;;22.40;69.50;;;;;;5114948;28;20192;-63
2023/09/12 01:30:36;;;;;;;2.55;2.33;;;22.40;69.60;;;;;;5114866;28;20184;-63
2023/09/12 01:33:04;;;;;;;3.45;2.28;;;22.40;69.60;;;;;;5114561;28;20212;-63
2023/09/12 01:35:31;;;;;;;3.03;2.15;;;22.40;69.50;;;;;;5114987;28;20213;-63
2023/09/12 01:37:59;;;;;;;3.60;2.17;;;22.40;69.50;;;;;;5114303;28;20185;-62
2023/09/12 01:40:59;;;;;;;3.20;2.30;;;22.40;69.50;;;;;;5114222;28;20209;-65
2023/09/12 01:43:29;;;;;;;3.08;2.00;;;22.40;69.50;;;;;;5114431;28;20217;-61
2023/09/12 01:46:00;;;;;;;5.30;2.30;;;22.40;69.50;;;;;;5113515;28;20189;-64
2023/09/12 01:48:34;;;;;;;2.30;2.05;;;22.40;69.50;;;;;;5114235;28;20263;-63
2023/09/12 01:51:02;;;;;;;2.28;2.08;;;22.30;69.40;;;;;;5114399;28;20182;-63
2023/09/12 01:53:30;;;;;;;3.60;2.30;;;22.40;69.50;;;;;;5114347;28;20246;-63
2023/09/12 02:02:30;;;;;;;3.20;2.20;;;22.40;69.40;;;;;;5060995;28;20225;-63
2023/09/12 02:05:08;;;;;;;3.95;2.05;;;22.40;69.40;;;;;;5114335;28;20213;-64
2023/09/12 02:07:40;;;;;;;3.03;1.88;;;22.30;69.30;;;;;;5114104;28;20234;-61
2023/09/12 02:10:09;;;;;;;2.38;2.08;;;22.30;69.40;;;;;;5114198;28;20248;-63
2023/09/12 02:12:37;;;;;;;4.18;2.35;;;22.30;69.30;;;;;;5113708;28;20229;-62
2023/09/12 02:15:08;;;;;;;2.95;2.10;;;22.30;69.30;;;;;;5113866;28;20224;-63
2023/09/12 02:17:35;;;;;;;5.15;2.00;;;22.30;69.30;;;;;;5113950;28;20270;-64
2023/09/12 02:20:05;;;;;;;2.90;2.10;;;22.30;69.30;;;;;;5114041;28;20213;-63
2023/09/12 02:22:33;;;;;;;2.42;1.98;;;22.40;69.40;;;;;;5113515;28;20588;-62
2023/09/12 02:25:04;;;;;;;2.45;2.05;;;22.30;69.30;;;;;;5113464;28;20217;-64
2023/09/12 02:27:32;;;;;;;3.55;2.35;;;22.40;69.40;;;;;;5113315;28;20189;-63
2023/09/12 02:29:59;;;;;;;3.78;2.35;;;22.40;69.30;;;;;;5113822;28;20216;-63
2023/09/12 02:32:30;;;;;;;2.10;1.90;;;22.30;69.20;;;;;;5113416;28;20185;-63
2023/09/12 02:34:58;;;;;;;2.20;2.00;;;22.30;69.20;;;;;;5113814;28;20213;-62
2023/09/12 02:37:26;;;;;;;2.50;2.20;;;22.40;69.30;;;;;;5113151;28;20193;-62
2023/09/12 02:39:53;;;;;;;2.55;2.00;;;22.30;69.10;;;;;;5113467;28;20213;-63
2023/09/12 02:42:21;;;;;;;2.75;2.10;;;22.30;69.20;;;;;;5113329;28;20213;-63
2023/09/12 02:44:49;;;;;;;3.15;2.33;;;22.30;69.20;;;;;;5113517;28;20213;-61
2023/09/12 02:47:16;;;;;;;2.88;2.20;;;22.30;69.10;;;;;;5113107;28;20270;-63
2023/09/12 02:49:45;;;;;;;3.65;2.03;;;22.30;69.10;;;;;;5113395;28;20274;-62
2023/09/12 02:52:13;;;;;;;2.20;1.90;;;22.30;69.20;;;;;;5113028;28;20196;-63
2023/09/12 02:54:41;;;;;;;2.65;2.33;;;22.30;69.10;;;;;;5108849;28;20217;-63
2023/09/12 02:57:09;;;;;;;2.50;2.30;;;22.30;69.10;;;;;;5112669;28;20221;-63
2023/09/12 02:59:37;;;;;;;3.67;2.35;;;22.30;69.90;;;;;;5113141;28;20221;-63
2023/09/12 03:02:04;;;;;;;5.13;2.30;;;22.30;69.10;;;;;;5112562;28;20185;-63
2023/09/12 03:04:32;;;;;;;5.18;2.15;;;22.30;69.10;;;;;;5113212;28;20209;-60
2023/09/12 03:07:01;;;;;;;2.63;2.05;;;22.40;69.20;;;;;;5112699;28;20200;-64
2023/09/12 03:09:37;;;;;;;4.60;2.00;;;22.30;69.10;;;;;;5112948;28;20213;-63
2023/09/12 03:12:06;;;;;;;2.22;1.90;;;22.30;69.10;;;;;;5113060;28;20199;-63
2023/09/12 03:14:33;;;;;;;3.00;2.10;;;22.30;69.10;;;;;;5112993;28;20217;-63
2023/09/12 03:17:27;;;;;;;3.60;2.05;;;22.30;69.10;;;;;;5112667;28;20200;-63
2023/09/12 03:22:41;;;;;;;2.20;2.00;;;22.30;69.10;;;;;;5091913;28;20318;-63
2023/09/12 03:25:09;;;;;;;3.67;2.33;;;22.30;69.10;;;;;;5112638;28;20566;-62
2023/09/12 03:27:36;;;;;;;2.80;2.42;;;22.30;69.10;;;;;;5112472;28;20196;-63
2023/09/12 03:30:05;;;;;;;2.78;1.90;;;22.30;69.00;;;;;;5113028;28;20216;-63
2023/09/12 03:32:33;;;;;;;2.53;2.10;;;22.30;69.10;;;;;;5112303;28;20193;-64
2023/09/12 03:35:00;;;;;;;4.45;2.13;;;22.30;69.10;;;;;;5112652;28;20224;-63
2023/09/12 03:37:28;;;;;;;3.85;2.20;;;22.30;69.00;;;;;;5112742;28;20196;-63
2023/09/12 03:39:57;;;;;;;2.72;1.92;;;22.30;69.00;;;;;;5112723;28;20632;-64
2023/09/12 03:42:25;;;;;;;2.15;1.95;;;22.30;69.10;;;;;;5110989;28;20182;-61
2023/09/12 03:44:52;;;;;;;2.47;2.05;;;22.30;69.00;;;;;;5112635;28;20217;-60
2023/09/12 03:47:19;;;;;;;2.42;2.13;;;22.30;69.00;;;;;;5112129;28;20193;-63
2023/09/12 03:49:47;;;;;;;4.13;2.17;;;22.30;69.00;;;;;;5112700;28;20213;-63
2023/09/12 03:55:07;;;;;;;3.17;2.10;;;22.30;69.00;;;;;;5112388;28;20725;-62
2023/09/12 03:57:35;;;;;;;2.65;2.10;;;22.30;69.00;;;;;;5112248;28;20186;-64
2023/09/12 04:00:05;;;;;;;4.10;2.33;;;22.20;68.90;;;;;;5112514;28;20249;-64
2023/09/12 04:02:33;;;;;;;2.45;2.05;;;22.30;69.00;;;;;;5112132;28;20193;-62
2023/09/12 04:05:00;;;;;;;4.22;2.05;;;22.30;69.00;;;;;;5112315;28;20220;-63
2023/09/12 04:07:28;;;;;;;5.70;1.98;;;22.30;69.00;;;;;;5112002;28;20197;-63
2023/09/12 04:09:56;;;;;;;3.75;2.25;;;22.30;69.00;;;;;;5115742;28;20702;-64
2023/09/12 04:12:25;;;;;;;4.55;2.33;;;22.30;69.00;;;;;;5116381;28;20189;-63
2023/09/12 04:14:54;;;;;;;2.72;2.08;;;22.30;69.00;;;;;;5115866;28;20221;-63
2023/09/12 04:17:22;;;;;;;3.60;2.28;;;22.30;69.00;;;;;;5115872;28;20190;-63
2023/09/12 04:19:50;;;;;;;3.42;2.22;;;22.30;69.00;;;;;;5116346;28;20213;-63
2023/09/12 04:22:17;;;;;;;4.55;2.60;;;22.30;69.00;;;;;;5115442;28;20233;-63
2023/09/12 04:24:44;;;;;;;4.55;2.25;;;22.30;69.00;;;;;;5116259;28;20236;-62
2023/09/12 04:27:12;;;;;;;4.00;2.22;;;22.30;69.00;;;;;;5116042;28;20190;-64
2023/09/12 04:29:40;;;;;;;2.30;2.00;;;22.30;69.00;;;;;;5115872;28;20220;-63
2023/09/12 04:32:08;;;;;;;4.10;2.20;;;22.30;69.00;;;;;;5116059;28;20189;-62
2023/09/12 04:34:38;;;;;;;3.00;2.20;;;22.30;69.00;;;;;;5115641;28;20256;-64
2023/09/12 04:37:20;;;;;;;;;;;;;;;;;;;;;
2023/09/12 04:42:44;;;;;;;2.50;2.30;;;22.30;69.00;;;;;;5074847;28;20563;-63
2023/09/12 04:45:13;;;;;;;4.30;2.40;;;22.30;69.00;;;;;;5115706;28;20221;-62
2023/09/12 04:47:40;;;;;;;2.80;2.15;;;22.30;69.00;;;;;;5115633;28;20189;-62
2023/09/12 04:50:08;;;;;;;2.75;1.90;;;22.30;69.00;;;;;;5115406;28;20225;-63
2023/09/12 04:52:36;;;;;;;3.20;2.70;;;22.30;69.00;;;;;;5115399;27;20186;-63
2023/09/12 04:55:04;;;;;;;2.50;2.28;;;22.20;68.90;;;;;;5115738;28;20213;-64
2023/09/12 04:57:33;;;;;;;4.78;2.67;;;22.30;69.00;;;;;;5115439;28;20186;-63
2023/09/12 05:00:00;;;;;;;4.88;2.30;;;22.30;69.00;;;;;;5115374;28;20232;-63
2023/09/12 05:02:29;;;;;;;3.13;2.30;;;22.20;68.90;;;;;;5115441;28;20185;-63
2023/09/12 05:04:57;;;;;;;2.80;2.20;;;22.30;69.00;;;;;;5115494;28;20232;-63
2023/09/12 05:07:25;;;;;;;3.20;2.38;;;22.30;69.00;;;;;;5114703;28;20643;-64
2023/09/12 05:09:53;;;;;;;4.35;2.50;;;22.30;69.00;;;;;;5115024;28;20260;-62
2023/09/12 05:12:20;;;;;;;2.78;2.45;;;22.30;69.00;;;;;;5115247;28;20193;-60
2023/09/12 05:14:48;;;;;;;2.97;2.30;;;22.30;69.00;;;;;;5114999;28;20224;-64
2023/09/12 05:17:15;;;;;;;3.05;2.60;;;22.20;69.80;;;;;;5114746;28;20189;-61
2023/09/12 05:19:44;;;;;;;3.00;2.70;;;22.30;69.00;;;;;;5114755;28;20259;-63
2023/09/12 05:22:11;;;;;;;4.30;2.45;;;22.30;69.00;;;;;;5114333;28;20236;-63
2023/09/12 05:24:39;;;;;;;2.58;2.28;;;22.30;69.00;;;;;;5115005;28;20241;-63
2023/09/12 05:27:07;;;;;;;3.25;2.30;;;22.30;69.10;;;;;;5114882;28;20186;-63
2023/09/12 05:29:34;;;;;;;3.50;2.50;;;22.20;69.00;;;;;;5114745;28;20216;-63
2023/09/12 05:32:02;;;;;;;4.18;2.65;;;22.30;69.00;;;;;;5114899;28;20189;-63
2023/09/12 05:34:30;;;;;;;6.65;2.50;;;22.30;69.00;;;;;;5114855;28;20221;-60
2023/09/12 05:36:59;;;;;;;3.45;2.58;;;22.30;69.00;;;;;;5114164;28;20189;-64
2023/09/12 05:39:27;;;;;;;3.05;2.30;;;22.20;69.00;;;;;;5114397;28;20213;-62
2023/09/12 05:45:16;;;;;;;4.60;2.60;;;22.20;68.90;;;;;;5114202;28;20345;-60
2023/09/12 05:47:44;;;;;;;6.05;2.63;;;22.30;69.10;;;;;;5114463;28;20189;-63
2023/09/12 05:50:12;;;;;;;3.28;2.70;;;22.20;69.00;;;;;;5114136;28;20221;-63
2023/09/12 05:53:11;;;;;;;3.72;2.75;;;22.20;69.00;;;;;;5114198;28;20182;-61
2023/09/12 05:56:03;;;;;;;3.40;2.58;;;22.20;69.10;;;;;;5114521;28;20278;-60
2023/09/12 05:58:30;;;;;;;3.15;2.58;;;22.20;69.00;;;;;;5114026;28;20274;-63
2023/09/12 06:00:58;;;;;;;4.22;2.60;;;22.20;69.10;;;;;;5114107;28;20225;-59
2023/09/12 06:07:06;;;;;;;5.32;2.40;;;22.30;69.20;;;;;;5113682;28;20172;-62
2023/09/12 06:09:40;;;;;;;5.00;2.45;;;22.20;69.00;;;;;;5113818;28;20236;-63
2023/09/12 06:18:55;;;;;;;3.85;3.30;;;22.20;69.10;;;;;;5050719;28;20246;-62
2023/09/12 06:21:23;;;;;;;7.22;2.50;;;22.20;69.10;;;;;;5005053;28;20235;-60
2023/09/12 06:24:09;;;;;;;3.78;2.97;;;22.30;69.30;;;;;;5050460;28;20317;-63
2023/09/12 06:26:38;;;;;;;3.08;2.78;;;22.20;69.10;;;;;;5050506;28;20207;-60
2023/09/12 06:29:06;;;;;;;2.78;2.40;;;22.20;69.10;;;;;;5050328;28;20219;-64
2023/09/12 06:31:35;;;;;;;4.30;2.85;;;22.20;69.10;;;;;;5049903;28;20187;-59
2023/09/12 06:34:02;;;;;;;4.10;2.80;;;22.20;69.10;;;;;;5048423;28;20777;-61
2023/09/12 06:36:30;;;;;;;2.55;2.33;;;22.20;69.10;;;;;;5050006;28;20196;-63
2023/09/12 06:38:58;;;;;;;3.47;2.55;;;22.20;69.10;;;;;;5050347;28;20192;-63
2023/09/12 06:41:26;;;;;;;4.43;2.83;;;22.20;69.10;;;;;;5041354;28;20198;-62
2023/09/12 06:44:06;;;;;;;5.05;2.60;;;22.20;69.10;;;;;;5033048;28;20219;-64
2023/09/12 06:46:35;;;;;;;3.35;2.40;;;22.20;69.20;;;;;;5033745;28;20191;-60
2023/09/12 06:49:03;;;;;;;4.03;2.70;;;22.20;69.20;;;;;;5036151;28;20689;-62
2023/09/12 06:51:31;;;;;;;3.45;2.28;;;22.20;69.20;;;;;;5048619;28;20197;-61
2023/09/12 06:53:59;;;;;;;3.22;2.70;;;22.20;69.20;;;;;;5087380;28;20212;-62
2023/09/12 06:56:27;;;;;;;3.40;2.35;;;22.20;69.20;;;;;;5101500;28;20273;-63
2023/09/12 06:59:32;;;;;;;5.60;2.67;;;22.20;69.20;;;;;;5085771;28;20225;-63
2023/09/12 07:02:00;;;;;;;4.70;2.10;;;22.30;69.20;;;;;;5096344;28;20217;-63
2023/09/12 07:04:28;;;;;;;3.63;2.63;;;22.30;69.10;;;;;;5100094;28;20291;-60
2023/09/12 07:09:36;;;;;;;2.65;2.40;;;22.40;68.80;;;;;;5098071;28;20228;-62
2023/09/12 07:12:07;;;;;;;5.07;2.83;;;22.40;68.70;;;;;;5088603;28;20250;-63
2023/09/12 07:21:03;;;;;;;2.97;2.25;;;22.50;68.60;;;;;;5092843;28;20220;-63
2023/09/12 07:23:32;;;;;;;4.50;2.30;;;22.60;68.70;;;;;;5101039;28;20286;-62
2023/09/12 07:26:00;;;;;;;3.35;2.40;;;22.50;68.60;;;;;;5105846;28;20695;-62
2023/09/12 07:28:41;;;;;;;5.20;2.15;;;22.50;68.60;;;;;;5095942;28;20209;-64
2023/09/12 07:31:11;;;;;;;5.60;2.40;;;22.60;68.70;;;;;;5093479;28;20226;-64
2023/09/12 07:33:42;;;;;;;2.85;2.15;;;22.60;68.70;;;;;;5095071;28;20500;-63
2023/09/12 07:36:09;;;;;;;2.85;2.15;;;22.60;68.70;;;;;;5106588;28;20233;-64
2023/09/12 07:38:41;;;;;;;6.72;2.30;;;22.70;68.80;;;;;;5101516;28;20202;-62
2023/09/12 07:41:10;;;;;;;3.60;2.03;;;22.60;68.70;;;;;;5110570;28;20663;-63
2023/09/12 07:43:37;;;;;;;3.08;2.28;;;22.70;68.80;;;;;;5104950;28;20197;-63
2023/09/12 07:46:11;;;;;;;3.90;2.28;;;22.60;68.70;;;;;;5088016;28;20233;-60
2023/09/12 07:48:45;;;;;;;3.17;2.55;;;22.70;68.90;;;;;;5085751;28;20202;-60
2023/09/12 07:51:19;;;;;;;3.85;2.45;;;22.70;68.80;;;;;;5017059;28;20228;-60
2023/09/12 07:54:08;;;;;;;7.55;2.60;;;22.80;69.00;;;;;;5095526;28;20200;-63
2023/09/12 07:56:38;;;;;;;4.93;2.03;;;22.80;69.30;;;;;;5096187;28;20206;-60
2023/09/12 07:59:12;;;;;;;8.93;2.45;;;22.80;69.30;;;;;;5102120;28;20208;-62
2023/09/12 08:04:47;;;;;;;5.07;2.30;;;23.00;69.20;;;;;;5095853;28;20236;-62
2023/09/12 08:07:18;;;;;;;3.05;2.30;;;23.00;69.20;;;;;;5103558;28;20185;-64
2023/09/12 08:12:41;;;;;;;3.72;2.50;;;23.10;69.30;;;;;;5041555;28;20238;-63
2023/09/12 08:23:43;;;;;;;3.53;2.20;;;23.40;69.50;;;;;;5041065;28;20239;-57
2023/09/12 08:26:28;;;;;;;5.15;2.65;;;23.40;69.50;;;;;;5042417;28;20228;-57
2023/09/12 08:38:20;;;;;;;7.63;2.25;;;23.40;69.50;;;;;;4986747;28;20211;-60
2023/09/12 08:41:07;;;;;;;;;;;;;;;;;;;;;
2023/09/12 08:46:26;;;;;;;5.82;2.60;;;23.30;69.40;;;;;;4978994;28;20245;-59
2023/09/12 08:49:04;;;;;;;6.30;2.20;;;23.30;69.40;;;;;;4987979;28;20202;-60
2023/09/12 08:51:35;;;;;;;5.38;2.65;;;23.30;69.40;;;;;;5059646;28;20219;-60
2023/09/12 08:54:11;;;;;;;5.63;2.30;;;23.30;69.40;;;;;;5067103;28;20183;-59
2023/09/12 08:56:48;;;;;;;4.40;2.30;;;23.30;70.20;;;;;;5100346;28;20304;-57
2023/09/12 08:59:16;;;;;;;3.95;2.35;;;23.30;69.40;;;;;;5056994;28;20203;-59
2023/09/12 09:01:50;;;;;;;6.10;1.90;;;23.30;69.20;;;;;;5050997;28;20304;-59
2023/09/12 09:04:29;;;;;;;7.25;2.28;;;23.40;69.30;;;;;;4997045;28;20219;-56
2023/09/12 09:07:05;;;;;;;4.55;2.20;;;23.30;69.20;;;;;;5048010;28;20215;-57
2023/09/12 09:09:39;;;;;;;6.93;2.70;;;23.30;69.00;;;;;;5062680;28;20198;-57
2023/09/12 09:12:11;;;;;;;3.83;2.20;;;23.30;69.00;;;;;;5055483;28;20724;-60
2023/09/12 09:14:44;;;;;;;4.32;2.67;;;23.30;69.00;;;;;;5057843;28;20242;-61
2023/09/12 09:17:20;;;;;;;4.07;2.33;;;23.40;69.20;;;;;;5056375;28;20227;-58
2023/09/12 09:20:29;;;;;;;5.47;2.20;;;23.30;69.00;;;;;;5030146;28;20203;-61
2023/09/12 09:23:18;;;;;;;2.92;2.10;;;23.40;69.10;;;;;;5061131;28;20286;-59
2023/09/12 09:25:57;;;;;;;2.90;1.90;;;23.30;68.90;;;;;;5047363;28;20231;-59
2023/09/12 09:28:27;;;;;;;3.85;2.60;;;23.30;68.90;;;;;;5058496;28;20268;-57
2023/09/12 09:30:56;;;;;;;5.97;2.10;;;23.30;68.90;;;;;;5056292;28;20211;-58
2023/09/12 09:33:28;;;;;;;3.50;2.13;;;23.40;69.00;;;;;;4978478;28;20290;-57
2023/09/12 09:36:12;;;;;;;2.70;1.85;;;23.30;68.90;;;;;;5045619;28;20285;-59
2023/09/12 09:41:27;;;;;;;3.30;2.05;;;23.40;68.90;;;;;;5055432;28;20697;-57
2023/09/12 09:43:55;;;;;;;3.92;2.55;;;23.40;68.90;;;;;;5082008;28;20190;-60
2023/09/12 09:46:26;;;;;;;3.17;2.30;;;23.40;68.80;;;;;;5071496;28;20282;-58
2023/09/12 09:48:57;;;;;;;4.35;2.65;;;23.40;68.80;;;;;;5106750;28;20192;-61
2023/09/12 09:51:26;;;;;;;4.03;2.25;;;23.50;68.80;;;;;;5106706;28;20664;-58
2023/09/12 09:54:00;;;;;;;5.95;2.10;;;23.50;68.70;;;;;;5096920;28;20182;-59
2023/09/12 10:11:10;;;;;;;3.00;2.35;;;23.50;68.50;;;;;;5054877;28;20210;-59
2023/09/12 10:13:53;;;;;;;2.63;2.20;;;23.50;68.50;;;;;;5047851;28;20703;-58
2023/09/12 10:16:25;;;;;;;3.67;2.50;;;23.50;68.40;;;;;;5062503;28;20317;-61
2023/09/12 10:19:16;;;;;;;3.72;2.40;;;23.50;68.40;;;;;;5013485;28;20202;-59
2023/09/12 10:22:00;;;;;;;2.88;2.25;;;23.50;68.40;;;;;;4959870;28;20659;-58
2023/09/12 10:25:06;;;;;;;3.30;2.20;;;23.50;68.40;;;;;;4997360;28;20209;-59
2023/09/12 10:34:33;;;;;;;4.57;2.38;;;23.60;68.20;;;;;;4984338;28;20218;-60
2023/09/12 10:37:13;;;;;;;3.70;2.40;;;23.60;68.20;;;;;;5013039;28;20228;-60
2023/09/12 10:39:53;;;;;;;2.90;2.55;;;23.60;68.20;;;;;;5107576;28;20188;-58
2023/09/12 10:42:23;;;;;;;3.40;2.50;;;23.60;68.10;;;;;;5089318;28;20220;-58
2023/09/12 10:44:52;;;;;;;7.70;2.25;;;23.60;68.10;;;;;;5107985;28;20251;-60
2023/09/12 10:47:22;;;;;;;3.65;2.33;;;23.60;68.00;;;;;;5102101;28;20222;-58
2023/09/12 10:56:17;;;;;;;2.50;2.30;;;23.60;67.90;;;;;;5053918;28;20288;-61
2023/09/12 10:59:18;;;;;;;5.45;2.25;;;23.70;68.00;;;;;;5058543;28;20210;-60
2023/09/12 11:01:49;;;;;;;6.40;2.58;;;23.70;67.90;;;;;;5006267;28;20232;-60
2023/09/12 11:04:37;;;;;;;5.43;2.60;;;23.70;67.90;;;;;;4972439;28;20273;-58
2023/09/12 11:07:44;;;;;;;2.35;2.08;;;23.70;67.80;;;;;;5006655;28;20217;-57
2023/09/12 11:10:24;;;;;;;4.07;2.92;;;23.70;67.80;;;;;;4947532;28;20205;-58
2023/09/12 11:12:55;;;;;;;3.85;2.45;;;23.70;67.80;;;;;;4974510;28;20196;-59
2023/09/12 11:18:20;;;;;;;3.80;2.47;;;23.60;67.70;;;;;;5002293;28;20189;-55
2023/09/12 11:32:07;;;;;;;7.10;2.40;;;23.60;67.80;;;;;;5060065;28;20212;-55
2023/09/12 11:34:42;;;;;;;6.95;2.80;;;23.60;67.80;;;;;;5050851;28;20763;-60
2023/09/12 11:37:12;;;;;;;3.72;2.45;;;23.60;67.80;;;;;;5055501;28;20224;-60
2023/09/12 11:39:46;;;;;;;4.25;2.10;;;23.70;67.80;;;;;;5068643;28;20208;-59
2023/09/12 11:42:15;;;;;;;3.88;2.58;;;23.70;67.80;;;;;;5099983;28;20220;-59
2023/09/12 11:44:45;;;;;;;4.13;2.55;;;23.70;67.80;;;;;;5099165;28;20277;-59
2023/09/12 11:47:14;;;;;;;3.60;2.67;;;23.70;67.80;;;;;;5094138;28;20221;-59
2023/09/12 11:49:45;;;;;;;3.08;2.38;;;23.60;67.80;;;;;;5086298;28;20204;-57
2023/09/12 11:52:19;;;;;;;4.15;2.30;;;23.70;67.80;;;;;;5095630;28;20439;-57
2023/09/12 11:54:47;;;;;;;4.70;2.80;;;23.60;67.70;;;;;;5105055;28;20192;-60
2023/09/12 11:57:19;;;;;;;3.58;2.58;;;23.70;67.80;;;;;;5103856;28;20217;-57
2023/09/12 11:59:49;;;;;;;3.38;2.45;;;23.70;68.60;;;;;;5094651;28;20285;-57
2023/09/12 12:02:18;;;;;;;2.88;2.40;;;23.70;67.80;;;;;;5096954;28;20218;-59
2023/09/12 12:04:53;;;;;;;3.70;2.67;;;23.60;67.70;;;;;;5094926;28;20648;-58
2023/09/12 12:07:26;;;;;;;3.22;2.30;;;23.60;67.70;;;;;;5099333;28;20229;-58
2023/09/12 12:09:54;;;;;;;4.28;2.42;;;23.60;67.80;;;;;;5098751;28;20190;-57
2023/09/12 12:12:27;;;;;;;3.20;2.75;;;23.60;67.80;;;;;;5096381;28;20233;-55
2023/09/12 12:14:54;;;;;;;3.78;2.70;;;23.70;67.70;;;;;;5099548;28;20182;-56
2023/09/12 12:17:23;;;;;;;3.10;2.30;;;23.60;67.70;;;;;;5102034;28;20223;-59
2023/09/12 12:19:55;;;;;;;4.68;2.72;;;23.80;67.90;;;;;;5096326;28;20190;-62
2023/09/12 12:22:28;;;;;;;4.60;2.95;;;23.70;67.80;;;;;;5064483;28;20649;-58
2023/09/12 12:24:56;;;;;;;4.93;2.67;;;23.70;67.80;;;;;;5098977;28;20610;-58
2023/09/12 12:27:25;;;;;;;4.43;2.58;;;23.70;67.80;;;;;;5060951;28;20284;-57
2023/09/12 12:29:54;;;;;;;4.25;2.92;;;23.80;68.00;;;;;;5102427;28;20179;-61
2023/09/12 12:32:26;;;;;;;5.25;2.80;;;23.70;67.90;;;;;;5073185;28;20221;-62
2023/09/12 12:35:02;;;;;;;3.40;2.63;;;23.70;67.80;;;;;;5098884;28;20201;-57
2023/09/12 12:37:40;;;;;;;3.20;2.58;;;23.70;67.80;;;;;;5105401;28;20210;-57
2023/09/12 12:40:17;;;;;;;5.13;2.50;;;23.70;67.80;;;;;;5099275;28;20185;-60
2023/09/12 12:42:46;;;;;;;2.88;2.40;;;23.70;67.80;;;;;;5103931;28;20268;-59
2023/09/12 12:45:14;;;;;;;4.10;2.42;;;23.70;68.60;;;;;;5109193;28;20221;-57
2023/09/12 12:47:42;;;;;;;6.78;3.03;;;23.80;68.70;;;;;;5118937;27;20189;-59
2023/09/12 12:50:12;;;;;;;3.63;2.75;;;23.80;68.00;;;;;;5116194;27;20182;-59
2023/09/12 12:52:40;;;;;;;4.25;2.88;;;23.80;67.90;;;;;;5109647;28;20213;-60
2023/09/12 12:55:10;;;;;;;6.15;2.72;;;23.80;67.80;;;;;;5108734;28;20193;-59
2023/09/12 12:58:01;;;;;;;4.07;2.83;;;23.80;67.80;;;;;;5103278;28;20218;-60
2023/09/12 13:00:29;;;;;;;3.20;2.90;;;23.80;67.80;;;;;;5097547;28;20228;-59
2023/09/12 13:02:56;;;;;;;3.20;2.50;;;23.80;67.80;;;;;;5103701;28;20201;-62
2023/09/12 13:05:27;;;;;;;3.90;3.28;;;23.80;67.90;;;;;;5108703;28;20227;-59
2023/09/12 13:07:56;;;;;;;5.07;3.00;;;23.80;67.90;;;;;;5104488;28;20186;-59
2023/09/12 13:10:27;;;;;;;4.07;2.88;;;23.80;68.00;;;;;;5098575;28;20208;-60
2023/09/12 13:12:54;;;;;;;3.47;2.80;;;23.80;68.00;;;;;;5106832;28;20193;-57
2023/09/12 13:15:21;;;;;;;3.85;2.80;;;23.70;67.90;;;;;;5112053;28;20192;-55
2023/09/12 13:17:49;;;;;;;7.22;3.00;;;23.80;68.00;;;;;;5109798;28;20189;-58
2023/09/12 13:20:16;;;;;;;7.00;3.13;;;23.80;68.10;;;;;;5096224;28;20247;-61
2023/09/12 13:22:45;;;;;;;4.05;2.88;;;23.80;68.10;;;;;;5109520;28;20233;-58
2023/09/12 13:25:14;;;;;;;6.63;3.13;;;23.80;68.20;;;;;;5100052;28;20212;-59
2023/09/12 13:27:42;;;;;;;4.10;2.95;;;23.80;68.10;;;;;;5107044;28;20213;-58
2023/09/12 13:30:10;;;;;;;3.38;3.03;;;23.80;68.10;;;;;;5102537;28;20314;-58
2023/09/12 13:32:49;;;;;;;3.90;3.03;;;23.80;68.10;;;;;;5108097;28;20224;-58
2023/09/12 13:38:20;;;;;;;8.15;3.13;;;23.80;68.10;;;;;;5013242;28;20727;-60
2023/09/12 13:47:36;;;;;;;3.10;2.80;;;23.80;68.20;;;;;;5051135;28;20803;-57
2023/09/12 13:53:29;;;;;;;3.80;2.85;;;23.80;68.10;;;;;;5032568;28;20703;-56
2023/09/12 13:55:58;;;;;;;4.55;3.13;;;23.80;68.10;;;;;;5100455;27;20239;-58
2023/09/12 13:58:26;;;;;;;3.38;2.90;;;23.80;68.20;;;;;;5107514;28;20193;-57
2023/09/12 14:01:00;;;;;;;3.55;2.70;;;23.80;68.20;;;;;;5098858;27;20213;-54
2023/09/12 14:13:26;;;;;;;4.60;3.00;;;23.80;68.30;;;;;;5004071;28;20879;-54
2023/09/12 14:15:54;;;;;;;5.85;3.17;;;23.80;68.20;;;;;;5011604;28;20223;-58
2023/09/12 14:18:24;;;;;;;6.15;2.90;;;23.80;68.20;;;;;;5066577;28;20217;-59
2023/09/12 14:23:56;;;;;;;4.00;3.00;;;23.80;68.10;;;;;;5018713;28;20306;-54
2023/09/12 14:32:58;;;;;;;5.40;3.20;;;23.90;68.20;;;;;;5056145;28;20787;-58
2023/09/12 14:57:58;;;;;;;7.38;2.75;;;23.90;68.10;;;;;;4998955;28;20797;-59
2023/09/12 15:00:32;;;;;;;3.40;2.70;;;23.90;68.00;;;;;;4999107;28;20193;-61
2023/09/12 15:05:45;;;;;;;4.32;2.90;;;23.90;67.80;;;;;;5060889;28;20838;-56
2023/09/12 15:10:58;;;;;;;5.47;2.85;;;23.90;67.70;;;;;;4962909;28;20246;-59
2023/09/12 15:17:23;;;;;;;4.18;2.90;;;24.00;67.70;;;;;;5064267;28;20707;-59
2023/09/12 15:20:28;;;;;;;4.00;2.70;;;24.00;67.70;;;;;;5057328;28;20203;-58
2023/09/12 15:26:45;;;;;;;16.92;2.80;;;24.00;67.50;;;;;;4931069;29;20313;-57
2023/09/12 15:29:12;;;;;;;2.92;2.50;;;24.00;67.60;;;;;;4951612;28;20203;-58
2023/09/12 15:32:07;;;;;;;5.47;2.67;;;24.00;67.50;;;;;;4958440;28;20393;-58
2023/09/12 15:34:41;;;;;;;3.95;2.75;;;24.00;67.40;;;;;;4896260;29;20720;-58
2023/09/12 15:37:23;;;;;;;10.57;2.60;;;24.00;67.50;;;;;;4896861;29;20229;-57
2023/09/12 15:39:51;;;;;;;8.05;3.05;;;24.00;67.40;;;;;;4899582;29;20258;-54
2023/09/12 15:42:51;;;;;;;4.60;2.85;;;24.10;67.50;;;;;;4898291;29;20244;-58
2023/09/12 15:45:19;;;;;;;5.15;2.80;;;24.10;67.40;;;;;;4888806;29;20506;-58
2023/09/12 15:47:56;;;;;;;4.35;2.47;;;24.20;67.50;;;;;;4903640;29;20240;-59
2023/09/12 15:51:04;;;;;;;;;;;;;;;;;;;;;
2023/09/12 15:53:32;;;;;;;4.18;2.40;;;24.30;67.40;;;;;;4876414;29;20636;-59
2023/09/12 15:56:12;;;;;;;5.53;2.50;;;24.30;67.40;;;;;;4899352;29;20229;-58
2023/09/12 15:58:41;;;;;;;6.75;2.45;;;24.40;67.10;;;;;;4942943;28;20222;-63
2023/09/12 16:01:10;;;;;;;3.60;2.50;;;24.30;66.80;;;;;;4930195;28;20241;-62
2023/09/12 16:03:41;;;;;;;5.05;2.50;;;24.40;66.80;;;;;;4930181;28;20203;-58
2023/09/12 16:06:12;;;;;;;5.88;2.63;;;24.30;66.70;;;;;;4909562;28;20250;-60
2023/09/12 16:08:41;;;;;;;5.60;2.45;;;24.40;66.70;;;;;;4944857;28;20203;-62
2023/09/12 16:11:10;;;;;;;5.68;2.30;;;24.30;66.60;;;;;;4999473;28;20255;-61
2023/09/12 16:13:39;;;;;;;4.20;2.50;;;24.30;66.50;;;;;;5011787;28;20239;-61
2023/09/12 16:16:10;;;;;;;6.70;2.33;;;24.40;66.40;;;;;;5010948;28;20207;-60
2023/09/12 16:18:38;;;;;;;5.72;2.38;;;24.30;66.30;;;;;;5034682;28;20594;-61
2023/09/12 16:21:09;;;;;;;5.53;2.33;;;24.30;66.30;;;;;;5048141;28;20308;-60
2023/09/12 16:23:38;;;;;;;4.82;2.40;;;24.30;66.40;;;;;;4998425;28;20601;-62